Dexter, New Mexico
Current Conditions -  °F | °C
As of 4:51 PM on Saturday 25 Oct 2014 (Local Time) from KROW Reporting Station
Clear Clear  
Wind Chill: 83°   Ceiling: Unl
Heat Index: 83°   Visibility: 10mi
Dew Point: 51°   Wind: 10mph
Humidity: 33%   Direction: 160°SSE
Pressure: 30.09"   Gusts: NA
Location:  33.2°N, 104.37°W
Report Text: KROW 252251Z 16009KT 10SM CLR 28/11 A3009 RMK AO2 SLP136 T02830106
Loading
Personal Weather Stations






























Interactive Weather Map
Tropical Storm Tracking
New forecast layout! Learn more

10-Day Weather Forecast

Advertisements
Track Severe Weather on mobile